Time;durP1;ratioP1;P1;durP2;ratioP2;P2;SDS_P1;SDS_P2;PMS_P1;PMS_P2;Temp;Humidity;BMP_temperature;BMP_pressure;BME280_temperature;BME280_humidity;BME280_pressure;Samples;Min_cycle;Max_cycle;Signal;HPM_P1;HPM_P2
2022/07/08 00:00:30;;;;;;;12.23;3.70;;;14.40;99.90;;;;;;5240160;28;20570;-49
2022/07/08 00:03:01;;;;;;;16.57;3.40;;;14.40;99.90;;;;;;5236067;28;20182;-50
2022/07/08 00:05:32;;;;;;;27.07;4.40;;;14.40;99.90;;;;;;5246567;28;20539;-50
2022/07/08 00:08:03;;;;;;;11.10;3.87;;;14.40;99.90;;;;;;5239699;28;20523;-50
2022/07/08 00:10:33;;;;;;;15.20;3.30;;;14.50;99.90;;;;;;5243591;28;20199;-50
2022/07/08 00:13:04;;;;;;;17.40;3.50;;;14.40;99.90;;;;;;5238402;28;20179;-50
2022/07/08 00:15:34;;;;;;;13.07;4.57;;;14.40;99.90;;;;;;5234799;28;20604;-49
2022/07/08 00:18:05;;;;;;;14.13;3.10;;;14.40;99.90;;;;;;5245601;28;20206;-49
2022/07/08 00:20:36;;;;;;;15.60;3.50;;;14.40;99.90;;;;;;5230681;28;20209;-50
2022/07/08 00:23:06;;;;;;;16.90;4.73;;;14.30;99.90;;;;;;5230802;28;20216;-50
2022/07/08 00:25:37;;;;;;;15.37;3.47;;;14.20;99.90;;;;;;5235591;28;20193;-51
2022/07/08 00:28:08;;;;;;;13.57;3.50;;;14.20;99.90;;;;;;5211634;28;20203;-49
2022/07/08 00:30:38;;;;;;;32.53;4.83;;;14.20;99.90;;;;;;5238557;28;20296;-50
2022/07/08 00:33:09;;;;;;;9.67;3.73;;;14.10;99.90;;;;;;5235137;28;20200;-50
2022/07/08 00:35:40;;;;;;;19.30;4.47;;;14.10;99.90;;;;;;5238919;28;20189;-51
2022/07/08 00:38:10;;;;;;;15.30;3.30;;;14.10;99.90;;;;;;5222915;28;20210;-49
2022/07/08 00:40:41;;;;;;;14.13;3.40;;;14.10;99.90;;;;;;5242847;28;20213;-50
2022/07/08 00:43:36;;;;;;;24.47;4.60;;;14.00;99.90;;;;;;5243250;28;20182;-49
2022/07/08 00:46:08;;;;;;;14.93;3.30;;;14.00;99.90;;;;;;5226387;28;20639;-50
2022/07/08 00:48:39;;;;;;;17.17;4.67;;;14.00;99.90;;;;;;5228743;28;20429;-51
2022/07/08 00:51:13;;;;;;;19.70;3.80;;;14.10;99.90;;;;;;5227439;28;20475;-50
2022/07/08 00:53:48;;;;;;;18.17;4.47;;;14.00;99.90;;;;;;5227868;28;20446;-50
2022/07/08 00:56:22;;;;;;;16.03;3.90;;;14.00;99.90;;;;;;5220213;28;20981;-49
2022/07/08 00:58:54;;;;;;;19.13;3.53;;;14.00;99.90;;;;;;5222012;28;20468;-50
2022/07/08 01:01:24;;;;;;;19.30;4.07;;;14.00;99.90;;;;;;5217713;28;20961;-51
2022/07/08 01:03:55;;;;;;;18.43;4.20;;;14.00;99.90;;;;;;5202319;28;20508;-50
2022/07/08 01:06:26;;;;;;;20.17;4.57;;;14.00;99.90;;;;;;5227604;28;20893;-49
2022/07/08 01:08:56;;;;;;;17.97;4.10;;;13.90;99.90;;;;;;5226677;28;20183;-50
2022/07/08 01:11:27;;;;;;;19.43;3.80;;;14.00;99.90;;;;;;5221075;28;20560;-49
2022/07/08 01:13:58;;;;;;;17.57;5.13;;;13.90;99.90;;;;;;5233508;28;20186;-49
2022/07/08 01:16:28;;;;;;;31.70;3.87;;;13.90;99.90;;;;;;5239675;28;20304;-49
2022/07/08 01:18:59;;;;;;;15.13;4.00;;;13.90;99.90;;;;;;5237119;28;20254;-49
2022/07/08 01:21:30;;;;;;;33.73;4.53;;;13.90;99.90;;;;;;5236842;28;20202;-50
2022/07/08 01:24:00;;;;;;;19.10;4.73;;;13.90;99.90;;;;;;5224175;28;20505;-51
2022/07/08 01:26:31;;;;;;;17.57;4.17;;;13.90;99.90;;;;;;5221947;28;20232;-50
2022/07/08 01:29:02;;;;;;;14.17;4.43;;;13.90;99.90;;;;;;5220308;28;20182;-49
2022/07/08 01:31:33;;;;;;;14.23;3.73;;;13.90;99.90;;;;;;5225334;28;20206;-50
2022/07/08 01:34:03;;;;;;;25.83;4.83;;;13.90;99.90;;;;;;5247192;28;20170;-49
2022/07/08 01:36:34;;;;;;;13.57;4.03;;;13.90;99.90;;;;;;5244111;28;20264;-51
2022/07/08 01:39:04;;;;;;;19.00;4.23;;;13.90;99.90;;;;;;5223033;28;20183;-50
2022/07/08 01:41:35;;;;;;;19.70;4.70;;;14.00;99.90;;;;;;5239118;28;20202;-50
2022/07/08 01:44:06;;;;;;;29.77;4.57;;;14.10;99.90;;;;;;5223114;28;20244;-50
2022/07/08 01:46:36;;;;;;;22.27;4.90;;;14.20;99.90;;;;;;5225193;28;20178;-50
2022/07/08 01:49:07;;;;;;;21.60;4.87;;;14.20;99.90;;;;;;5249252;28;20170;-50
2022/07/08 01:51:37;;;;;;;21.23;4.60;;;14.30;99.90;;;;;;5238803;28;20203;-49
2022/07/08 01:54:08;;;;;;;23.90;4.57;;;14.40;99.90;;;;;;5222930;28;20191;-50
2022/07/08 01:56:41;;;;;;;15.90;3.73;;;14.50;99.90;;;;;;5235842;28;20198;-51
2022/07/08 01:59:11;;;;;;;20.97;4.70;;;14.40;99.90;;;;;;5241622;28;20183;-50
2022/07/08 02:01:42;;;;;;;11.13;3.73;;;14.50;99.90;;;;;;5219485;28;21144;-49
2022/07/08 02:04:12;;;;;;;19.00;4.30;;;14.40;99.90;;;;;;5233018;28;20187;-49
2022/07/08 02:06:43;;;;;;;14.23;3.53;;;14.40;99.90;;;;;;5241137;28;20240;-50
2022/07/08 02:09:14;;;;;;;13.70;3.67;;;14.40;99.90;;;;;;5217756;28;20187;-49
2022/07/08 02:14:33;;;;;;;29.43;4.40;;;14.50;99.90;;;;;;5241524;28;20193;-50
2022/07/08 02:17:04;;;;;;;24.63;5.27;;;14.50;99.90;;;;;;5227506;28;20961;-50
2022/07/08 02:19:35;;;;;;;10.00;3.70;;;14.50;99.90;;;;;;5225488;28;20274;-50
2022/07/08 02:22:06;;;;;;;14.60;4.60;;;14.50;99.90;;;;;;5239597;28;20199;-50
2022/07/08 02:24:37;;;;;;;22.53;4.73;;;14.40;99.90;;;;;;5248930;28;21001;-50
2022/07/08 02:27:08;;;;;;;17.00;4.70;;;14.40;99.90;;;;;;5219117;28;20194;-50
2022/07/08 02:29:39;;;;;;;11.70;3.57;;;14.30;99.90;;;;;;5233385;28;20180;-51
2022/07/08 02:32:10;;;;;;;18.17;4.73;;;14.30;99.90;;;;;;5239702;28;20959;-50
2022/07/08 02:34:40;;;;;;;17.23;4.00;;;14.20;99.90;;;;;;5217809;28;20187;-49
2022/07/08 02:37:13;;;;;;;13.80;4.50;;;14.20;99.90;;;;;;5223132;28;20337;-50
2022/07/08 02:39:43;;;;;;;23.77;4.70;;;14.20;99.90;;;;;;5239526;28;20188;-50
2022/07/08 02:42:14;;;;;;;25.90;6.00;;;14.40;99.90;;;;;;5238031;28;20442;-49
2022/07/08 02:44:45;;;;;;;28.40;5.23;;;14.50;99.90;;;;;;5233010;28;20187;-50
2022/07/08 02:47:15;;;;;;;21.77;4.83;;;14.50;99.90;;;;;;5242449;28;20337;-51
2022/07/08 02:49:46;;;;;;;15.50;3.83;;;14.60;99.90;;;;;;5236779;28;20262;-50
2022/07/08 02:52:16;;;;;;;23.10;5.07;;;14.60;99.90;;;;;;5243063;28;20647;-51
2022/07/08 02:54:47;;;;;;;9.60;4.13;;;14.60;99.90;;;;;;5223820;28;20662;-50
2022/07/08 02:57:17;;;;;;;19.40;4.80;;;14.60;99.90;;;;;;5241608;28;20255;-50
2022/07/08 02:59:48;;;;;;;19.90;4.43;;;14.50;99.90;;;;;;5219905;28;20177;-49
2022/07/08 03:02:18;;;;;;;15.30;4.00;;;14.60;99.90;;;;;;5240556;28;20171;-50
2022/07/08 03:04:49;;;;;;;26.03;4.90;;;14.60;99.90;;;;;;5225674;28;20181;-49
2022/07/08 03:07:20;;;;;;;15.20;3.80;;;14.60;99.90;;;;;;5228962;28;20182;-50
2022/07/08 03:09:51;;;;;;;22.10;5.20;;;14.60;99.90;;;;;;5240532;28;20205;-50
2022/07/08 03:12:21;;;;;;;18.70;5.07;;;14.50;99.90;;;;;;5229618;28;20441;-50
2022/07/08 03:14:52;;;;;;;22.83;4.60;;;14.50;99.90;;;;;;5217529;28;20193;-51
2022/07/08 03:17:22;;;;;;;19.00;3.77;;;14.50;99.90;;;;;;5240397;28;20223;-50
2022/07/08 03:19:53;;;;;;;24.70;4.70;;;14.50;99.90;;;;;;5221943;28;20203;-50
2022/07/08 03:22:24;;;;;;;18.67;4.60;;;14.60;99.90;;;;;;5244972;28;20178;-49
2022/07/08 03:24:54;;;;;;;22.17;4.87;;;14.60;99.90;;;;;;5229303;28;20338;-50
2022/07/08 03:27:25;;;;;;;15.33;3.47;;;14.60;99.90;;;;;;5227767;28;20190;-50
2022/07/08 03:29:55;;;;;;;18.57;4.00;;;14.70;99.90;;;;;;5225439;28;20235;-50
2022/07/08 03:32:26;;;;;;;19.97;4.30;;;14.80;99.90;;;;;;5219657;28;20655;-49
2022/07/08 03:34:57;;;;;;;17.77;4.23;;;14.80;99.90;;;;;;5233618;28;20185;-50
2022/07/08 03:37:28;;;;;;;13.33;4.63;;;14.80;99.90;;;;;;5226108;28;20837;-49
2022/07/08 03:41:19;;;;;;;14.87;4.10;;;14.80;99.90;;;;;;5244368;28;20203;-50
2022/07/08 03:42:53;;;;;;;15.27;4.53;;;14.80;99.90;;;;;;5230813;28;20194;-50
2022/07/08 03:45:23;;;;;;;18.77;4.03;;;14.90;99.90;;;;;;5220601;28;20433;-50
2022/07/08 03:47:54;;;;;;;12.20;4.30;;;14.90;99.90;;;;;;5245461;28;20444;-50
2022/07/08 03:50:25;;;;;;;17.13;4.00;;;14.90;99.90;;;;;;5234608;28;20252;-50
2022/07/08 03:52:56;;;;;;;18.33;4.23;;;15.00;99.90;;;;;;5245855;28;20499;-49
2022/07/08 03:55:27;;;;;;;22.57;4.50;;;15.10;99.90;;;;;;5223388;28;20183;-50
2022/07/08 03:57:58;;;;;;;13.43;4.10;;;15.10;99.90;;;;;;5244003;28;21001;-49
2022/07/08 04:00:28;;;;;;;19.23;4.23;;;15.10;99.90;;;;;;5227356;28;20191;-50
2022/07/08 04:02:59;;;;;;;8.27;3.10;;;15.20;99.90;;;;;;5233015;28;20453;-50
2022/07/08 04:05:29;;;;;;;22.67;4.93;;;15.30;99.90;;;;;;5212084;28;20175;-50
2022/07/08 04:08:00;;;;;;;14.13;4.40;;;15.20;99.90;;;;;;5226127;28;20185;-50
2022/07/08 04:10:30;;;;;;;27.97;4.23;;;15.10;99.90;;;;;;5225823;28;20231;-50
2022/07/08 04:13:01;;;;;;;13.03;4.03;;;15.10;99.90;;;;;;5221468;28;20324;-50
2022/07/08 04:15:32;;;;;;;13.77;4.30;;;15.10;99.90;;;;;;5229225;28;20183;-49
2022/07/08 04:18:02;;;;;;;19.93;3.93;;;15.10;99.90;;;;;;5217008;28;20222;-50
2022/07/08 04:20:34;;;;;;;10.63;3.60;;;15.20;99.90;;;;;;5241473;28;20212;-50
2022/07/08 04:23:05;;;;;;;36.67;4.53;;;15.20;99.90;;;;;;5219470;28;20567;-49
2022/07/08 04:25:35;;;;;;;11.53;4.23;;;15.30;99.90;;;;;;5214876;28;20870;-50
2022/07/08 04:28:06;;;;;;;16.07;3.53;;;15.40;99.90;;;;;;5222113;28;20531;-50
2022/07/08 04:30:36;;;;;;;21.53;3.93;;;15.50;99.90;;;;;;5219232;28;20298;-50
2022/07/08 04:33:08;;;;;;;19.77;5.03;;;15.50;99.90;;;;;;5239069;28;20730;-51
2022/07/08 04:35:39;;;;;;;10.00;3.00;;;15.50;99.90;;;;;;5231949;28;20186;-50
2022/07/08 04:38:10;;;;;;;23.00;4.23;;;15.60;99.90;;;;;;5233183;28;20467;-49
2022/07/08 04:40:40;;;;;;;11.83;3.93;;;15.70;99.90;;;;;;5225711;28;20285;-49
2022/07/08 04:43:12;;;;;;;8.43;4.00;;;15.90;99.90;;;;;;5228916;28;20206;-50
2022/07/08 04:45:43;;;;;;;12.37;3.70;;;15.90;99.90;;;;;;5227800;28;20460;-51
2022/07/08 04:48:13;;;;;;;11.53;3.87;;;15.80;99.90;;;;;;5220187;28;20486;-50
2022/07/08 04:50:44;;;;;;;9.30;3.53;;;15.90;99.90;;;;;;5217441;28;20209;-49
2022/07/08 04:53:14;;;;;;;11.93;3.97;;;16.00;99.90;;;;;;5209471;28;20205;-50
2022/07/08 04:55:45;;;;;;;14.97;3.80;;;16.10;99.90;;;;;;5235557;28;20736;-50
2022/07/08 04:58:16;;;;;;;11.83;3.40;;;16.00;99.90;;;;;;5218150;28;20206;-50
2022/07/08 05:00:46;;;;;;;9.23;3.20;;;16.00;99.90;;;;;;5230411;28;20210;-50
2022/07/08 05:03:17;;;;;;;15.73;3.97;;;16.00;99.90;;;;;;5211481;28;20186;-50
2022/07/08 05:05:48;;;;;;;22.37;3.20;;;15.90;99.90;;;;;;5230582;28;20189;-50
2022/07/08 05:08:18;;;;;;;12.17;3.40;;;16.00;99.90;;;;;;5231808;28;20190;-50
2022/07/08 05:10:49;;;;;;;12.27;3.53;;;16.20;99.90;;;;;;5226264;28;20210;-50
2022/07/08 05:13:20;;;;;;;13.90;3.63;;;16.20;99.90;;;;;;5219489;28;20335;-52
2022/07/08 05:15:50;;;;;;;7.43;2.93;;;16.10;99.90;;;;;;5238804;28;20212;-50
2022/07/08 05:18:21;;;;;;;12.23;3.33;;;16.20;99.90;;;;;;5237372;28;20218;-50
2022/07/08 05:20:51;;;;;;;9.20;3.60;;;16.20;99.90;;;;;;5221567;28;20228;-50
2022/07/08 05:23:22;;;;;;;20.73;3.70;;;16.30;99.90;;;;;;5239119;28;20213;-50
2022/07/08 05:25:53;;;;;;;10.83;3.47;;;16.30;99.90;;;;;;5239475;28;20193;-49
2022/07/08 05:28:23;;;;;;;10.37;3.83;;;16.40;99.90;;;;;;5245205;28;20186;-52
2022/07/08 05:30:54;;;;;;;8.03;3.10;;;16.30;99.90;;;;;;5224555;28;20222;-50
2022/07/08 05:33:24;;;;;;;18.30;3.77;;;16.30;99.90;;;;;;5240974;28;20277;-50
2022/07/08 05:35:55;;;;;;;13.37;3.97;;;16.40;99.90;;;;;;5230319;28;20226;-50
2022/07/08 05:38:26;;;;;;;12.40;3.63;;;16.30;99.90;;;;;;5225961;28;20214;-51
2022/07/08 05:40:56;;;;;;;15.03;3.40;;;16.20;99.90;;;;;;5226052;28;20202;-50
2022/07/08 05:43:27;;;;;;;6.20;3.13;;;16.00;99.90;;;;;;5239172;28;20189;-51
2022/07/08 05:45:57;;;;;;;17.43;4.20;;;16.00;99.90;;;;;;5236215;28;20670;-50
2022/07/08 05:48:28;;;;;;;17.30;3.80;;;15.90;99.90;;;;;;5220362;28;20179;-49
2022/07/08 05:50:59;;;;;;;13.73;3.97;;;15.90;99.90;;;;;;5228024;28;20202;-50
2022/07/08 05:53:29;;;;;;;16.60;4.50;;;15.80;99.90;;;;;;5221599;28;20186;-50
2022/07/08 05:56:00;;;;;;;7.03;3.27;;;15.70;99.90;;;;;;5227990;28;20190;-50
2022/07/08 05:58:30;;;;;;;14.90;4.27;;;15.80;99.90;;;;;;5237111;28;20237;-48
2022/07/08 06:01:02;;;;;;;16.53;3.90;;;15.80;99.90;;;;;;5235064;28;20198;-54
2022/07/08 06:03:33;;;;;;;8.47;2.70;;;15.80;99.90;;;;;;5233829;28;20186;-47
2022/07/08 06:06:03;;;;;;;9.77;2.80;;;15.80;99.90;;;;;;5212287;28;20433;-48
2022/07/08 06:08:34;;;;;;;14.97;3.20;;;15.70;99.90;;;;;;5239383;28;20186;-47
2022/07/08 06:11:05;;;;;;;12.67;5.60;;;15.80;99.90;;;;;;5244571;28;20198;-48
2022/07/08 06:13:35;;;;;;;11.37;2.90;;;15.80;99.90;;;;;;5244397;28;20179;-48
2022/07/08 06:16:06;;;;;;;7.20;3.43;;;15.80;99.90;;;;;;5229541;28;20197;-49
2022/07/08 06:18:37;;;;;;;12.33;3.07;;;15.70;99.90;;;;;;5242967;28;20761;-48
2022/07/08 06:21:07;;;;;;;6.63;2.90;;;15.70;99.90;;;;;;5228328;28;20449;-49
2022/07/08 06:23:38;;;;;;;10.70;3.27;;;15.60;99.90;;;;;;5224770;28;20643;-51
2022/07/08 06:26:10;;;;;;;7.60;3.40;;;15.50;99.90;;;;;;5239241;28;20175;-47
2022/07/08 06:28:41;;;;;;;6.53;3.77;;;15.60;99.90;;;;;;5237782;28;20216;-49
2022/07/08 06:31:11;;;;;;;13.63;3.30;;;15.50;99.90;;;;;;5234055;28;20507;-48
2022/07/08 06:33:42;;;;;;;14.30;3.23;;;15.50;99.90;;;;;;5234384;28;20714;-48
2022/07/08 06:36:12;;;;;;;15.73;2.43;;;15.50;99.90;;;;;;5239456;28;20653;-49
2022/07/08 06:38:43;;;;;;;10.30;3.30;;;15.40;99.90;;;;;;5248185;28;20206;-49
2022/07/08 06:41:14;;;;;;;10.83;3.30;;;15.40;99.90;;;;;;5240482;28;20206;-48
2022/07/08 06:43:45;;;;;;;13.00;2.97;;;15.50;99.90;;;;;;5242164;28;20202;-48
2022/07/08 06:46:16;;;;;;;12.50;3.23;;;15.50;99.90;;;;;;5224577;28;20187;-48
2022/07/08 06:48:46;;;;;;;12.73;3.27;;;15.50;99.90;;;;;;5229510;28;20436;-49
2022/07/08 06:51:17;;;;;;;10.00;2.90;;;15.40;99.90;;;;;;5224012;28;20202;-49
2022/07/08 06:56:37;;;;;;;12.70;2.80;;;15.40;99.90;;;;;;5235995;28;20327;-48
2022/07/08 06:59:08;;;;;;;21.13;4.30;;;15.40;99.90;;;;;;5216831;28;20473;-49
2022/07/08 07:01:38;;;;;;;8.83;3.63;;;15.30;99.90;;;;;;5233398;28;20190;-49
2022/07/08 07:04:09;;;;;;;18.10;4.33;;;15.40;99.90;;;;;;5239208;28;20189;-47
2022/07/08 07:06:40;;;;;;;6.93;2.93;;;15.30;99.90;;;;;;5221796;28;20206;-48
2022/07/08 07:09:11;;;;;;;19.83;3.50;;;15.50;99.90;;;;;;5217642;28;20190;-48
2022/07/08 07:11:41;;;;;;;16.77;3.97;;;15.40;99.90;;;;;;5239256;28;20201;-49
2022/07/08 07:14:12;;;;;;;18.27;4.10;;;15.50;99.90;;;;;;5235481;28;20183;-47
2022/07/08 07:16:43;;;;;;;9.23;3.07;;;15.60;99.90;;;;;;5236627;28;20194;-48
2022/07/08 07:19:13;;;;;;;13.17;4.33;;;15.60;99.90;;;;;;5216732;28;20179;-49
2022/07/08 07:21:44;;;;;;;13.87;3.47;;;15.50;99.90;;;;;;5250324;28;20202;-48
2022/07/08 07:24:15;;;;;;;10.60;3.33;;;15.30;99.90;;;;;;5242676;28;20647;-49
2022/07/08 07:26:46;;;;;;;10.70;3.67;;;15.40;99.90;;;;;;5241927;28;20209;-48
2022/07/08 07:29:16;;;;;;;9.87;3.27;;;15.30;99.90;;;;;;5232507;28;20437;-50
2022/07/08 07:31:47;;;;;;;11.33;3.70;;;15.40;99.90;;;;;;5233031;28;20245;-48
2022/07/08 07:34:18;;;;;;;6.00;2.63;;;15.50;99.90;;;;;;5247096;28;20699;-49
2022/07/08 07:36:48;;;;;;;8.53;3.17;;;15.80;99.90;;;;;;5229579;28;20217;-47
2022/07/08 07:39:19;;;;;;;11.63;2.80;;;15.80;99.90;;;;;;5249669;28;20185;-50
2022/07/08 07:41:50;;;;;;;9.27;3.00;;;15.90;99.90;;;;;;5224366;28;20595;-48
2022/07/08 07:44:20;;;;;;;9.27;2.97;;;15.80;99.90;;;;;;5242207;28;20186;-50
2022/07/08 07:46:51;;;;;;;9.17;2.57;;;15.80;99.90;;;;;;5231347;28;20260;-48
2022/07/08 07:49:21;;;;;;;9.03;2.50;;;15.90;99.90;;;;;;5239444;28;20175;-47
2022/07/08 07:51:52;;;;;;;7.00;2.47;;;15.80;99.90;;;;;;5223479;28;20194;-48
2022/07/08 07:54:23;;;;;;;11.67;3.20;;;16.00;99.90;;;;;;5239984;28;20189;-48
2022/07/08 07:56:53;;;;;;;9.83;2.27;;;16.30;99.90;;;;;;5242604;28;20179;-49
2022/07/08 07:59:24;;;;;;;5.93;1.97;;;16.30;99.90;;;;;;5223869;28;20175;-49
2022/07/08 08:01:55;;;;;;;9.80;3.03;;;16.50;99.90;;;;;;5241577;28;20256;-48
2022/07/08 08:04:25;;;;;;;16.37;2.73;;;16.50;99.90;;;;;;5236145;28;20198;-48
2022/07/08 08:06:56;;;;;;;8.03;2.40;;;16.70;99.90;;;;;;5227642;28;20542;-48
2022/07/08 08:09:26;;;;;;;8.67;2.70;;;17.00;99.90;;;;;;5233239;28;20182;-49
2022/07/08 08:11:57;;;;;;;7.03;3.03;;;16.90;99.90;;;;;;5225599;28;20201;-49
2022/07/08 08:14:28;;;;;;;12.63;2.70;;;16.80;99.90;;;;;;5237096;28;20191;-48
2022/07/08 08:16:58;;;;;;;8.13;2.20;;;16.90;99.90;;;;;;5238139;28;20182;-50
2022/07/08 08:19:31;;;;;;;12.63;3.80;;;17.20;99.90;;;;;;5234579;28;20187;-49
2022/07/08 08:22:01;;;;;;;9.27;2.80;;;17.00;99.90;;;;;;5222415;28;20528;-49
2022/07/08 08:24:32;;;;;;;10.23;3.30;;;17.10;99.90;;;;;;5222527;28;20491;-48
2022/07/08 08:27:03;;;;;;;20.40;3.63;;;17.30;99.90;;;;;;5219293;28;20197;-49
2022/07/08 08:29:34;;;;;;;8.37;2.33;;;17.40;99.90;;;;;;5245759;28;20204;-49
2022/07/08 08:32:05;;;;;;;9.43;2.60;;;17.50;99.90;;;;;;5221735;28;20445;-48
2022/07/08 08:34:35;;;;;;;15.90;3.80;;;17.40;99.90;;;;;;5211935;28;20674;-49
2022/07/08 08:37:06;;;;;;;11.53;2.67;;;17.80;99.90;;;;;;5223996;28;20213;-49
2022/07/08 08:39:37;;;;;;;12.20;2.60;;;17.90;99.90;;;;;;5231365;28;20673;-50
2022/07/08 08:42:07;;;;;;;12.67;2.73;;;18.00;99.90;;;;;;5238892;28;20974;-49
2022/07/08 08:44:38;;;;;;;15.23;3.70;;;18.00;99.90;;;;;;5237348;28;20216;-49
2022/07/08 08:47:10;;;;;;;11.60;2.53;;;17.90;99.90;;;;;;5240712;28;20186;-49
2022/07/08 08:49:41;;;;;;;4.90;2.73;;;17.70;99.90;;;;;;5240186;28;20472;-51
2022/07/08 08:52:15;;;;;;;6.30;2.50;;;17.50;99.90;;;;;;5239070;28;20811;-50
2022/07/08 08:54:47;;;;;;;10.00;2.60;;;17.30;99.90;;;;;;5248180;28;20427;-50
2022/07/08 08:57:20;;;;;;;8.30;2.23;;;17.30;99.90;;;;;;5225109;28;20468;-47
2022/07/08 08:59:51;;;;;;;11.00;2.63;;;17.30;99.90;;;;;;5238889;28;20436;-51
2022/07/08 09:02:22;;;;;;;3.40;2.17;;;17.20;99.90;;;;;;5233220;28;20428;-49
2022/07/08 09:04:53;;;;;;;3.10;2.17;;;17.20;99.90;;;;;;5241565;28;20436;-50
2022/07/08 09:07:24;;;;;;;10.90;2.53;;;17.10;99.90;;;;;;5235284;28;20214;-49
2022/07/08 09:09:54;;;;;;;3.27;1.80;;;17.00;99.90;;;;;;5247104;28;20483;-48
2022/07/08 09:12:25;;;;;;;11.00;2.60;;;16.90;99.90;;;;;;5241998;28;20244;-50
2022/07/08 09:15:00;;;;;;;9.03;2.47;;;17.00;99.90;;;;;;5217652;28;21389;-49
2022/07/08 09:17:31;;;;;;;12.33;2.47;;;17.20;99.90;;;;;;5223980;28;20204;-53
2022/07/08 09:20:02;;;;;;;3.10;2.00;;;16.90;99.90;;;;;;5207857;28;21031;-49
2022/07/08 09:22:32;;;;;;;4.73;2.10;;;16.90;99.90;;;;;;5236085;28;20191;-48
2022/07/08 09:25:04;;;;;;;6.57;2.50;;;16.90;99.90;;;;;;5230123;28;20190;-49
2022/07/08 09:27:35;;;;;;;6.57;2.03;;;17.10;99.90;;;;;;5217071;28;20273;-49
2022/07/08 09:30:06;;;;;;;8.20;4.60;;;17.30;99.90;;;;;;5225237;23;20537;-48
2022/07/08 09:32:37;;;;;;;14.67;2.60;;;17.40;99.90;;;;;;5202531;28;20207;-48
2022/07/08 09:35:12;;;;;;;19.80;2.50;;;17.40;99.90;;;;;;5215793;28;20530;-48
2022/07/08 09:37:42;;;;;;;7.10;2.47;;;17.70;99.90;;;;;;5195383;28;20293;-46
2022/07/08 09:40:18;;;;;;;6.23;2.00;;;17.80;99.90;;;;;;5216873;28;20675;-47
2022/07/08 09:42:48;;;;;;;14.70;2.63;;;17.70;99.90;;;;;;5216092;28;20194;-49
2022/07/08 09:45:21;;;;;;;10.60;2.70;;;17.70;99.90;;;;;;5219934;28;20429;-48
2022/07/08 09:47:51;;;;;;;24.03;2.87;;;17.50;99.90;;;;;;5222617;28;20510;-47
2022/07/08 09:50:31;;;;;;;42.60;15.33;;;17.70;99.90;;;;;;5205141;28;20461;-48
2022/07/08 09:53:19;;;;;;;8.10;4.30;;;17.90;99.90;;;;;;5221587;28;20198;-48
2022/07/08 09:55:51;;;;;;;7.30;2.47;;;18.00;99.90;;;;;;5213797;28;20563;-47
2022/07/08 09:58:25;;;;;;;13.97;2.27;;;18.10;99.90;;;;;;5201204;28;20844;-46
2022/07/08 10:00:56;;;;;;;18.10;2.33;;;18.30;99.90;;;;;;5219687;28;21083;-46
2022/07/08 10:03:28;;;;;;;5.20;2.50;;;18.40;99.90;;;;;;5208601;28;20508;-47
2022/07/08 10:05:59;;;;;;;6.93;2.03;;;18.10;99.90;;;;;;5204516;28;20509;-49
2022/07/08 10:08:29;;;;;;;16.27;6.87;;;18.20;99.90;;;;;;5205068;28;20672;-47
2022/07/08 10:11:06;;;;;;;18.37;4.03;;;18.10;99.90;;;;;;5199465;28;20289;-47
2022/07/08 10:13:39;;;;;;;18.73;4.50;;;18.30;99.90;;;;;;5217095;28;20627;-47
2022/07/08 10:16:11;;;;;;;6.03;2.80;;;18.40;99.90;;;;;;5207846;28;20460;-46
2022/07/08 10:18:46;;;;;;;9.53;2.60;;;18.40;99.90;;;;;;5187779;28;20464;-47
2022/07/08 10:21:22;;;;;;;7.80;4.03;;;18.80;99.90;;;;;;5221774;28;20459;-47
2022/07/08 10:23:54;;;;;;;5.67;3.30;;;19.20;99.90;;;;;;5220056;28;20506;-50
2022/07/08 10:26:38;;;;;;;15.17;7.30;;;19.80;99.90;;;;;;5195388;28;20918;-48
2022/07/08 10:29:11;;;;;;;11.77;6.07;;;20.30;99.20;;;;;;5203335;28;20441;-50
2022/07/08 10:31:52;;;;;;;7.90;3.93;;;21.00;96.80;;;;;;5222988;28;20479;-50
2022/07/08 10:34:30;;;;;;;15.30;7.63;;;20.90;93.10;;;;;;5199609;28;20437;-51
2022/07/08 10:37:03;;;;;;;10.80;3.00;;;20.70;92.00;;;;;;5214056;28;20972;-49
2022/07/08 10:39:39;;;;;;;43.80;26.67;;;20.60;91.40;;;;;;5221357;28;20465;-50
2022/07/08 10:42:11;;;;;;;26.30;16.57;;;20.60;91.90;;;;;;5217294;28;20544;-49
2022/07/08 10:44:44;;;;;;;16.77;8.27;;;20.70;92.10;;;;;;5207673;28;20448;-50
2022/07/08 10:47:16;;;;;;;8.93;4.13;;;20.70;90.20;;;;;;5206448;28;20433;-51
2022/07/08 10:49:48;;;;;;;6.43;2.80;;;20.70;90.50;;;;;;5197169;28;20462;-49
2022/07/08 10:52:22;;;;;;;18.20;8.63;;;20.70;90.50;;;;;;5213364;28;20790;-51
2022/07/08 10:55:16;;;;;;;20.43;7.67;;;20.80;86.30;;;;;;5198918;28;20493;-51
2022/07/08 10:57:54;;;;;;;5.90;3.63;;;21.00;85.40;;;;;;5222076;28;20552;-50
2022/07/08 11:00:26;;;;;;;35.33;13.30;;;20.80;83.60;;;;;;5220170;28;20535;-49
2022/07/08 11:02:59;;;;;;;7.83;2.33;;;20.90;82.50;;;;;;5202120;28;20509;-49
2022/07/08 11:05:36;;;;;;;4.53;2.50;;;21.20;81.10;;;;;;5218222;28;20436;-49
2022/07/08 11:08:27;;;;;;;11.37;5.40;;;21.60;80.00;;;;;;5220008;28;20475;-47
2022/07/08 11:11:03;;;;;;;15.03;9.00;;;21.90;75.60;;;;;;5214449;28;20466;-49
2022/07/08 11:13:34;;;;;;;4.70;3.33;;;21.70;72.60;;;;;;5206188;28;20449;-47
2022/07/08 11:16:05;;;;;;;33.33;15.30;;;21.60;70.10;;;;;;5207065;28;20434;-46
2022/07/08 11:18:37;;;;;;;17.30;3.53;;;21.50;68.80;;;;;;5224040;28;20482;-47
2022/07/08 11:21:08;;;;;;;32.23;14.27;;;21.40;68.90;;;;;;5194822;28;20199;-48
2022/07/08 11:23:45;;;;;;;37.43;18.90;;;21.40;70.00;;;;;;5212324;28;20461;-46
2022/07/08 11:26:20;;;;;;;26.90;9.47;;;21.50;71.00;;;;;;5205707;28;20441;-52
2022/07/08 11:28:50;;;;;;;4.43;2.23;;;21.30;70.50;;;;;;5216266;28;20900;-50
2022/07/08 11:31:25;;;;;;;6.17;2.30;;;21.30;70.80;;;;;;5213893;28;20465;-49
2022/07/08 11:33:57;;;;;;;20.13;5.23;;;21.00;68.70;;;;;;5201295;28;20207;-47
2022/07/08 11:36:28;;;;;;;7.80;2.17;;;20.80;69.80;;;;;;5213504;28;20495;-49
2022/07/08 11:39:04;;;;;;;14.70;2.47;;;20.40;70.40;;;;;;5198168;28;20301;-46
2022/07/08 11:41:40;;;;;;;5.70;2.10;;;20.30;70.60;;;;;;5202767;28;20213;-46
2022/07/08 11:44:12;;;;;;;8.30;1.23;;;20.50;70.50;;;;;;5202586;28;20472;-48
2022/07/08 11:46:45;;;;;;;3.60;1.43;;;20.60;69.20;;;;;;5204710;28;20506;-48
2022/07/08 11:49:17;;;;;;;8.00;1.53;;;20.70;68.20;;;;;;5221108;28;20445;-47
2022/07/08 11:51:48;;;;;;;3.73;1.70;;;20.80;67.40;;;;;;5204522;28;20544;-48
2022/07/08 11:54:21;;;;;;;11.47;5.03;;;20.90;67.00;;;;;;5224983;28;20429;-50
2022/07/08 11:56:59;;;;;;;8.20;2.70;;;21.00;66.20;;;;;;5203296;28;20444;-46
2022/07/08 11:59:32;;;;;;;4.47;1.87;;;21.10;65.10;;;;;;5220153;28;20443;-48
2022/07/08 12:02:04;;;;;;;10.60;3.10;;;21.00;65.40;;;;;;5221673;28;20441;-47
2022/07/08 12:04:35;;;;;;;9.67;5.87;;;21.10;65.50;;;;;;5197673;28;20438;-48
2022/07/08 12:07:23;;;;;;;3.90;2.63;;;21.20;64.90;;;;;;5194132;28;20433;-46
2022/07/08 12:09:55;;;;;;;4.60;2.20;;;21.10;64.20;;;;;;5181877;28;20919;-46
2022/07/08 12:12:31;;;;;;;9.53;3.90;;;20.80;64.10;;;;;;5200215;28;20995;-47
2022/07/08 12:15:12;;;;;;;10.93;3.03;;;20.80;66.30;;;;;;5198530;28;20996;-46
2022/07/08 12:17:56;;;;;;;14.40;3.67;;;20.70;64.90;;;;;;5199557;28;20459;-45
2022/07/08 12:20:34;;;;;;;18.63;10.80;;;20.60;65.00;;;;;;5216294;28;20500;-44
2022/07/08 12:23:05;;;;;;;4.20;2.33;;;20.60;65.00;;;;;;5206637;28;20499;-49
2022/07/08 12:25:47;;;;;;;3.27;1.53;;;20.80;65.10;;;;;;5220097;28;20492;-47
2022/07/08 12:28:22;;;;;;;1.93;1.40;;;21.10;64.80;;;;;;5189783;28;20437;-46
2022/07/08 12:30:53;;;;;;;3.93;1.60;;;21.50;64.50;;;;;;5218987;28;20469;-46
2022/07/08 12:33:27;;;;;;;1.80;1.70;;;21.70;63.60;;;;;;5197679;28;20461;-45
2022/07/08 12:35:58;;;;;;;5.27;1.23;;;21.90;61.40;;;;;;5224020;28;20805;-46
2022/07/08 12:38:30;;;;;;;2.17;1.73;;;21.80;60.70;;;;;;5202332;28;20484;-46
2022/07/08 12:41:01;;;;;;;5.90;1.70;;;21.90;60.70;;;;;;5199640;28;20217;-46
2022/07/08 12:43:32;;;;;;;4.13;1.40;;;22.20;61.40;;;;;;5202696;28;20898;-46
2022/07/08 12:46:04;;;;;;;8.40;5.40;;;22.40;60.50;;;;;;5220104;28;20222;-47
2022/07/08 12:48:35;;;;;;;30.63;17.60;;;22.70;59.90;;;;;;5198566;28;20434;-46
2022/07/08 12:51:08;;;;;;;3.23;2.40;;;23.00;59.50;;;;;;5209861;28;20965;-48
2022/07/08 12:53:39;;;;;;;2.20;1.20;;;23.00;57.80;;;;;;5210051;28;20180;-47
2022/07/08 12:56:10;;;;;;;1.33;1.23;;;22.60;57.20;;;;;;5222835;28;20732;-50
2022/07/08 12:58:40;;;;;;;2.40;1.27;;;22.20;59.40;;;;;;5215620;28;20292;-46
2022/07/08 13:01:11;;;;;;;6.27;1.70;;;22.00;60.30;;;;;;5198510;28;20199;-45
2022/07/08 13:03:41;;;;;;;6.97;4.93;;;21.70;60.80;;;;;;5213718;28;20269;-45
2022/07/08 13:06:12;;;;;;;12.30;3.10;;;21.30;61.00;;;;;;5203480;28;20179;-46
2022/07/08 13:08:43;;;;;;;3.73;2.33;;;21.00;62.40;;;;;;5198688;28;20724;-46